sensor_id;sensor_type;location;lat;lon;timestamp;P1;durP1;ratioP1;P2;durP2;ratioP2
55827;SDS011;41758;51.992;5.890;2022-10-16T00:01:28;4.03;;;2.38;;
55827;SDS011;41758;51.992;5.890;2022-10-16T00:03:55;4.78;;;2.00;;
55827;SDS011;41758;51.992;5.890;2022-10-16T00:06:23;4.68;;;2.40;;
55827;SDS011;41758;51.992;5.890;2022-10-16T00:08:49;5.40;;;2.58;;
55827;SDS011;41758;51.992;5.890;2022-10-16T00:11:17;4.68;;;1.90;;
55827;SDS011;41758;51.992;5.890;2022-10-16T00:13:46;3.65;;;2.05;;
55827;SDS011;41758;51.992;5.890;2022-10-16T00:16:13;4.20;;;2.28;;
55827;SDS011;41758;51.992;5.890;2022-10-16T00:18:39;5.47;;;2.00;;
55827;SDS011;41758;51.992;5.890;2022-10-16T00:21:16;5.55;;;2.30;;
55827;SDS011;41758;51.992;5.890;2022-10-16T00:23:49;4.93;;;2.10;;
55827;SDS011;41758;51.992;5.890;2022-10-16T00:26:16;3.97;;;2.00;;
55827;SDS011;41758;51.992;5.890;2022-10-16T00:28:45;3.22;;;1.65;;
55827;SDS011;41758;51.992;5.890;2022-10-16T00:31:14;3.72;;;2.00;;
55827;SDS011;41758;51.992;5.890;2022-10-16T00:33:40;3.33;;;1.83;;
55827;SDS011;41758;51.992;5.890;2022-10-16T00:36:07;3.58;;;1.75;;
55827;SDS011;41758;51.992;5.890;2022-10-16T00:38:35;3.20;;;1.70;;
55827;SDS011;41758;51.992;5.890;2022-10-16T00:41:02;3.17;;;1.88;;
55827;SDS011;41758;51.992;5.890;2022-10-16T00:46:09;3.90;;;1.90;;
55827;SDS011;41758;51.992;5.890;2022-10-16T00:48:39;3.40;;;1.83;;
55827;SDS011;41758;51.992;5.890;2022-10-16T00:51:05;2.88;;;1.75;;
55827;SDS011;41758;51.992;5.890;2022-10-16T00:53:32;3.97;;;1.92;;
55827;SDS011;41758;51.992;5.890;2022-10-16T00:55:58;3.45;;;1.92;;
55827;SDS011;41758;51.992;5.890;2022-10-16T00:58:24;3.38;;;1.80;;
55827;SDS011;41758;51.992;5.890;2022-10-16T01:00:50;3.38;;;2.00;;
55827;SDS011;41758;51.992;5.890;2022-10-16T01:03:26;3.50;;;1.92;;
55827;SDS011;41758;51.992;5.890;2022-10-16T01:08:44;3.28;;;2.00;;
55827;SDS011;41758;51.992;5.890;2022-10-16T01:11:33;4.00;;;1.85;;
55827;SDS011;41758;51.992;5.890;2022-10-16T01:14:07;4.18;;;1.85;;
55827;SDS011;41758;51.992;5.890;2022-10-16T01:17:04;3.97;;;1.83;;
55827;SDS011;41758;51.992;5.890;2022-10-16T01:19:52;4.65;;;1.83;;
55827;SDS011;41758;51.992;5.890;2022-10-16T01:22:22;3.30;;;1.90;;
55827;SDS011;41758;51.992;5.890;2022-10-16T01:24:52;3.90;;;2.15;;
55827;SDS011;41758;51.992;5.890;2022-10-16T01:27:27;3.83;;;1.83;;
55827;SDS011;41758;51.992;5.890;2022-10-16T01:32:43;3.30;;;1.90;;
55827;SDS011;41758;51.992;5.890;2022-10-16T01:35:25;3.85;;;1.92;;
55827;SDS011;41758;51.992;5.890;2022-10-16T01:40:26;2.88;;;1.90;;
55827;SDS011;41758;51.992;5.890;2022-10-16T01:42:59;5.10;;;2.42;;
55827;SDS011;41758;51.992;5.890;2022-10-16T01:45:37;5.32;;;2.10;;
55827;SDS011;41758;51.992;5.890;2022-10-16T01:48:04;4.53;;;2.08;;
55827;SDS011;41758;51.992;5.890;2022-10-16T01:50:33;3.50;;;1.90;;
55827;SDS011;41758;51.992;5.890;2022-10-16T01:53:05;3.40;;;1.83;;
55827;SDS011;41758;51.992;5.890;2022-10-16T01:55:32;3.50;;;1.60;;
55827;SDS011;41758;51.992;5.890;2022-10-16T01:58:03;4.07;;;1.90;;
55827;SDS011;41758;51.992;5.890;2022-10-16T02:00:32;3.28;;;1.60;;
55827;SDS011;41758;51.992;5.890;2022-10-16T02:03:01;4.07;;;1.90;;
55827;SDS011;41758;51.992;5.890;2022-10-16T02:05:30;3.85;;;2.10;;
55827;SDS011;41758;51.992;5.890;2022-10-16T02:08:04;4.43;;;1.70;;
55827;SDS011;41758;51.992;5.890;2022-10-16T02:10:29;3.30;;;1.67;;
55827;SDS011;41758;51.992;5.890;2022-10-16T02:12:57;3.40;;;1.63;;
55827;SDS011;41758;51.992;5.890;2022-10-16T02:15:28;2.40;;;1.52;;
55827;SDS011;41758;51.992;5.890;2022-10-16T02:17:54;3.00;;;1.75;;
55827;SDS011;41758;51.992;5.890;2022-10-16T02:20:22;3.55;;;1.70;;
55827;SDS011;41758;51.992;5.890;2022-10-16T02:22:52;4.90;;;1.90;;
55827;SDS011;41758;51.992;5.890;2022-10-16T02:25:29;2.95;;;1.63;;
55827;SDS011;41758;51.992;5.890;2022-10-16T02:33:08;3.53;;;1.95;;
55827;SDS011;41758;51.992;5.890;2022-10-16T02:35:35;2.55;;;1.60;;
55827;SDS011;41758;51.992;5.890;2022-10-16T02:38:03;4.22;;;1.88;;
55827;SDS011;41758;51.992;5.890;2022-10-16T02:40:29;5.38;;;1.98;;
55827;SDS011;41758;51.992;5.890;2022-10-16T02:42:55;3.47;;;1.60;;
55827;SDS011;41758;51.992;5.890;2022-10-16T02:45:21;3.45;;;1.58;;
55827;SDS011;41758;51.992;5.890;2022-10-16T02:47:48;3.25;;;1.80;;
55827;SDS011;41758;51.992;5.890;2022-10-16T02:50:14;4.03;;;1.70;;
55827;SDS011;41758;51.992;5.890;2022-10-16T02:52:40;3.28;;;1.70;;
55827;SDS011;41758;51.992;5.890;2022-10-16T02:55:06;4.32;;;1.88;;
55827;SDS011;41758;51.992;5.890;2022-10-16T02:57:31;3.10;;;1.75;;
55827;SDS011;41758;51.992;5.890;2022-10-16T02:59:57;4.15;;;2.00;;
55827;SDS011;41758;51.992;5.890;2022-10-16T03:02:23;5.00;;;1.80;;
55827;SDS011;41758;51.992;5.890;2022-10-16T03:04:49;4.78;;;1.90;;
55827;SDS011;41758;51.992;5.890;2022-10-16T03:07:15;3.47;;;1.70;;
55827;SDS011;41758;51.992;5.890;2022-10-16T03:09:44;2.90;;;1.52;;
55827;SDS011;41758;51.992;5.890;2022-10-16T03:12:09;2.53;;;1.38;;
55827;SDS011;41758;51.992;5.890;2022-10-16T03:14:37;3.30;;;1.70;;
55827;SDS011;41758;51.992;5.890;2022-10-16T03:17:04;4.05;;;1.77;;
55827;SDS011;41758;51.992;5.890;2022-10-16T03:19:30;3.63;;;1.52;;
55827;SDS011;41758;51.992;5.890;2022-10-16T03:21:56;3.63;;;1.67;;
55827;SDS011;41758;51.992;5.890;2022-10-16T03:24:22;2.85;;;1.60;;
55827;SDS011;41758;51.992;5.890;2022-10-16T03:26:48;3.55;;;1.55;;
55827;SDS011;41758;51.992;5.890;2022-10-16T03:29:13;4.80;;;1.98;;
55827;SDS011;41758;51.992;5.890;2022-10-16T03:31:39;4.72;;;2.10;;
55827;SDS011;41758;51.992;5.890;2022-10-16T03:34:05;3.00;;;1.70;;
55827;SDS011;41758;51.992;5.890;2022-10-16T03:36:31;3.47;;;1.70;;
55827;SDS011;41758;51.992;5.890;2022-10-16T03:38:56;3.10;;;1.50;;
55827;SDS011;41758;51.992;5.890;2022-10-16T03:41:22;3.92;;;1.52;;
55827;SDS011;41758;51.992;5.890;2022-10-16T03:43:48;3.53;;;1.67;;
55827;SDS011;41758;51.992;5.890;2022-10-16T03:46:13;3.95;;;1.70;;
55827;SDS011;41758;51.992;5.890;2022-10-16T03:48:39;2.90;;;1.65;;
55827;SDS011;41758;51.992;5.890;2022-10-16T03:51:05;2.33;;;1.55;;
55827;SDS011;41758;51.992;5.890;2022-10-16T03:53:31;3.22;;;1.52;;
55827;SDS011;41758;51.992;5.890;2022-10-16T03:55:57;4.00;;;1.75;;
55827;SDS011;41758;51.992;5.890;2022-10-16T03:58:23;3.95;;;1.55;;
55827;SDS011;41758;51.992;5.890;2022-10-16T04:00:49;3.42;;;1.70;;
55827;SDS011;41758;51.992;5.890;2022-10-16T04:03:15;3.15;;;1.73;;
55827;SDS011;41758;51.992;5.890;2022-10-16T04:05:40;5.63;;;1.80;;
55827;SDS011;41758;51.992;5.890;2022-10-16T04:08:06;2.60;;;1.45;;
55827;SDS011;41758;51.992;5.890;2022-10-16T04:10:32;3.50;;;1.60;;
55827;SDS011;41758;51.992;5.890;2022-10-16T04:12:58;2.90;;;1.45;;
55827;SDS011;41758;51.992;5.890;2022-10-16T04:15:24;3.80;;;1.70;;
55827;SDS011;41758;51.992;5.890;2022-10-16T04:17:50;4.40;;;1.83;;
55827;SDS011;41758;51.992;5.890;2022-10-16T04:20:17;4.35;;;1.55;;
55827;SDS011;41758;51.992;5.890;2022-10-16T04:22:43;3.13;;;1.58;;
55827;SDS011;41758;51.992;5.890;2022-10-16T04:25:09;3.22;;;1.60;;
55827;SDS011;41758;51.992;5.890;2022-10-16T04:27:36;3.10;;;1.70;;
55827;SDS011;41758;51.992;5.890;2022-10-16T04:30:02;4.05;;;1.70;;
55827;SDS011;41758;51.992;5.890;2022-10-16T04:32:29;3.30;;;1.63;;
55827;SDS011;41758;51.992;5.890;2022-10-16T04:34:54;3.00;;;1.50;;
55827;SDS011;41758;51.992;5.890;2022-10-16T04:37:24;3.00;;;1.63;;
55827;SDS011;41758;51.992;5.890;2022-10-16T04:39:50;3.22;;;1.50;;
55827;SDS011;41758;51.992;5.890;2022-10-16T04:42:16;4.05;;;1.60;;
55827;SDS011;41758;51.992;5.890;2022-10-16T04:44:42;3.00;;;1.70;;
55827;SDS011;41758;51.992;5.890;2022-10-16T04:47:08;5.60;;;2.00;;
55827;SDS011;41758;51.992;5.890;2022-10-16T04:49:33;3.90;;;1.80;;
55827;SDS011;41758;51.992;5.890;2022-10-16T04:51:59;3.90;;;1.45;;
55827;SDS011;41758;51.992;5.890;2022-10-16T04:54:28;2.92;;;1.50;;
55827;SDS011;41758;51.992;5.890;2022-10-16T04:56:53;4.00;;;1.52;;
55827;SDS011;41758;51.992;5.890;2022-10-16T04:59:19;2.72;;;1.58;;
55827;SDS011;41758;51.992;5.890;2022-10-16T05:01:46;3.00;;;1.42;;
55827;SDS011;41758;51.992;5.890;2022-10-16T05:04:11;4.75;;;1.63;;
55827;SDS011;41758;51.992;5.890;2022-10-16T05:06:37;3.05;;;1.80;;
55827;SDS011;41758;51.992;5.890;2022-10-16T05:09:04;3.30;;;1.58;;
55827;SDS011;41758;51.992;5.890;2022-10-16T05:11:30;2.90;;;1.63;;
55827;SDS011;41758;51.992;5.890;2022-10-16T05:13:56;3.72;;;1.60;;
55827;SDS011;41758;51.992;5.890;2022-10-16T05:16:22;2.83;;;1.30;;
55827;SDS011;41758;51.992;5.890;2022-10-16T05:18:48;2.90;;;1.48;;
55827;SDS011;41758;51.992;5.890;2022-10-16T05:21:13;2.97;;;1.60;;
55827;SDS011;41758;51.992;5.890;2022-10-16T05:23:39;3.17;;;1.40;;
55827;SDS011;41758;51.992;5.890;2022-10-16T05:26:05;3.92;;;1.60;;
55827;SDS011;41758;51.992;5.890;2022-10-16T05:28:31;2.83;;;1.40;;
55827;SDS011;41758;51.992;5.890;2022-10-16T05:30:57;2.72;;;1.45;;
55827;SDS011;41758;51.992;5.890;2022-10-16T05:33:24;5.35;;;1.77;;
55827;SDS011;41758;51.992;5.890;2022-10-16T05:35:51;3.28;;;1.20;;
55827;SDS011;41758;51.992;5.890;2022-10-16T05:38:17;3.83;;;1.60;;
55827;SDS011;41758;51.992;5.890;2022-10-16T05:40:43;3.35;;;1.50;;
55827;SDS011;41758;51.992;5.890;2022-10-16T05:43:15;3.10;;;1.40;;
55827;SDS011;41758;51.992;5.890;2022-10-16T05:45:40;2.53;;;1.50;;
55827;SDS011;41758;51.992;5.890;2022-10-16T05:48:06;2.85;;;1.30;;
55827;SDS011;41758;51.992;5.890;2022-10-16T05:50:32;3.38;;;1.38;;
55827;SDS011;41758;51.992;5.890;2022-10-16T05:52:57;3.10;;;1.48;;
55827;SDS011;41758;51.992;5.890;2022-10-16T05:55:23;2.50;;;1.50;;
55827;SDS011;41758;51.992;5.890;2022-10-16T05:57:53;2.47;;;1.23;;
55827;SDS011;41758;51.992;5.890;2022-10-16T06:00:19;2.78;;;1.45;;
55827;SDS011;41758;51.992;5.890;2022-10-16T06:02:45;2.40;;;1.20;;
55827;SDS011;41758;51.992;5.890;2022-10-16T06:05:11;3.22;;;1.30;;
55827;SDS011;41758;51.992;5.890;2022-10-16T06:07:39;2.97;;;1.30;;
55827;SDS011;41758;51.992;5.890;2022-10-16T06:10:05;3.03;;;1.40;;
55827;SDS011;41758;51.992;5.890;2022-10-16T06:12:31;2.58;;;1.35;;
55827;SDS011;41758;51.992;5.890;2022-10-16T06:14:57;4.35;;;1.45;;
55827;SDS011;41758;51.992;5.890;2022-10-16T06:17:22;4.30;;;1.67;;
55827;SDS011;41758;51.992;5.890;2022-10-16T06:19:48;2.40;;;1.33;;
55827;SDS011;41758;51.992;5.890;2022-10-16T06:22:14;2.20;;;1.38;;
55827;SDS011;41758;51.992;5.890;2022-10-16T06:24:39;3.42;;;1.75;;
55827;SDS011;41758;51.992;5.890;2022-10-16T06:27:05;2.38;;;1.30;;
55827;SDS011;41758;51.992;5.890;2022-10-16T06:29:31;3.10;;;1.40;;
55827;SDS011;41758;51.992;5.890;2022-10-16T06:31:59;4.18;;;1.63;;
55827;SDS011;41758;51.992;5.890;2022-10-16T06:34:30;3.22;;;1.70;;
55827;SDS011;41758;51.992;5.890;2022-10-16T06:36:56;3.10;;;1.58;;
55827;SDS011;41758;51.992;5.890;2022-10-16T06:39:22;2.35;;;1.50;;
55827;SDS011;41758;51.992;5.890;2022-10-16T06:41:47;3.05;;;1.50;;
55827;SDS011;41758;51.992;5.890;2022-10-16T06:44:14;3.05;;;1.42;;
55827;SDS011;41758;51.992;5.890;2022-10-16T06:46:40;4.45;;;1.90;;
55827;SDS011;41758;51.992;5.890;2022-10-16T06:49:05;3.13;;;1.42;;
55827;SDS011;41758;51.992;5.890;2022-10-16T06:51:31;2.85;;;1.58;;
55827;SDS011;41758;51.992;5.890;2022-10-16T06:53:59;5.80;;;1.38;;
55827;SDS011;41758;51.992;5.890;2022-10-16T06:56:26;2.80;;;1.50;;
55827;SDS011;41758;51.992;5.890;2022-10-16T06:58:53;3.80;;;1.60;;
55827;SDS011;41758;51.992;5.890;2022-10-16T07:01:20;3.38;;;2.00;;
55827;SDS011;41758;51.992;5.890;2022-10-16T07:03:47;3.75;;;1.58;;
55827;SDS011;41758;51.992;5.890;2022-10-16T07:06:14;5.25;;;2.08;;
55827;SDS011;41758;51.992;5.890;2022-10-16T07:08:42;3.17;;;1.60;;
55827;SDS011;41758;51.992;5.890;2022-10-16T07:11:10;4.18;;;1.60;;
55827;SDS011;41758;51.992;5.890;2022-10-16T07:13:41;4.13;;;1.60;;
55827;SDS011;41758;51.992;5.890;2022-10-16T07:16:08;2.97;;;1.40;;
55827;SDS011;41758;51.992;5.890;2022-10-16T07:18:55;4.47;;;1.80;;
55827;SDS011;41758;51.992;5.890;2022-10-16T07:21:29;4.25;;;1.77;;
55827;SDS011;41758;51.992;5.890;2022-10-16T07:24:06;4.20;;;1.40;;
55827;SDS011;41758;51.992;5.890;2022-10-16T07:26:36;2.67;;;1.38;;
55827;SDS011;41758;51.992;5.890;2022-10-16T07:29:04;4.78;;;1.73;;
55827;SDS011;41758;51.992;5.890;2022-10-16T07:31:41;2.35;;;1.42;;
55827;SDS011;41758;51.992;5.890;2022-10-16T07:34:07;3.63;;;1.70;;
55827;SDS011;41758;51.992;5.890;2022-10-16T07:36:33;5.03;;;1.98;;
55827;SDS011;41758;51.992;5.890;2022-10-16T07:38:59;2.80;;;1.55;;
55827;SDS011;41758;51.992;5.890;2022-10-16T07:41:25;4.55;;;1.70;;
55827;SDS011;41758;51.992;5.890;2022-10-16T07:43:51;3.67;;;1.60;;
55827;SDS011;41758;51.992;5.890;2022-10-16T07:46:19;4.78;;;1.85;;
55827;SDS011;41758;51.992;5.890;2022-10-16T07:48:45;5.28;;;1.85;;
55827;SDS011;41758;51.992;5.890;2022-10-16T07:51:20;2.78;;;1.73;;
55827;SDS011;41758;51.992;5.890;2022-10-16T07:53:49;4.53;;;1.83;;
55827;SDS011;41758;51.992;5.890;2022-10-16T07:56:16;3.05;;;1.60;;
55827;SDS011;41758;51.992;5.890;2022-10-16T07:58:42;4.80;;;1.60;;
55827;SDS011;41758;51.992;5.890;2022-10-16T08:01:09;5.00;;;1.80;;
55827;SDS011;41758;51.992;5.890;2022-10-16T08:03:43;3.42;;;1.50;;
55827;SDS011;41758;51.992;5.890;2022-10-16T08:06:12;3.80;;;1.73;;
55827;SDS011;41758;51.992;5.890;2022-10-16T08:08:38;4.70;;;1.90;;
55827;SDS011;41758;51.992;5.890;2022-10-16T08:11:04;3.45;;;1.77;;
55827;SDS011;41758;51.992;5.890;2022-10-16T08:13:30;2.13;;;1.42;;
55827;SDS011;41758;51.992;5.890;2022-10-16T08:15:59;3.15;;;1.58;;
55827;SDS011;41758;51.992;5.890;2022-10-16T08:18:24;3.70;;;1.70;;
55827;SDS011;41758;51.992;5.890;2022-10-16T08:20:57;3.80;;;1.77;;
55827;SDS011;41758;51.992;5.890;2022-10-16T08:23:25;4.30;;;1.90;;
55827;SDS011;41758;51.992;5.890;2022-10-16T08:25:52;4.55;;;1.90;;
55827;SDS011;41758;51.992;5.890;2022-10-16T08:28:22;4.05;;;2.00;;
55827;SDS011;41758;51.992;5.890;2022-10-16T08:30:48;5.32;;;2.55;;
55827;SDS011;41758;51.992;5.890;2022-10-16T08:33:14;3.47;;;1.95;;
55827;SDS011;41758;51.992;5.890;2022-10-16T08:35:39;5.50;;;1.70;;
55827;SDS011;41758;51.992;5.890;2022-10-16T08:38:05;5.55;;;1.50;;
55827;SDS011;41758;51.992;5.890;2022-10-16T08:40:32;6.50;;;2.05;;
55827;SDS011;41758;51.992;5.890;2022-10-16T08:45:45;4.07;;;1.83;;
55827;SDS011;41758;51.992;5.890;2022-10-16T08:48:47;3.08;;;1.55;;
55827;SDS011;41758;51.992;5.890;2022-10-16T08:51:19;6.03;;;1.90;;
55827;SDS011;41758;51.992;5.890;2022-10-16T08:53:50;6.45;;;2.03;;
55827;SDS011;41758;51.992;5.890;2022-10-16T08:56:19;4.18;;;1.92;;
55827;SDS011;41758;51.992;5.890;2022-10-16T08:58:46;3.05;;;1.70;;
55827;SDS011;41758;51.992;5.890;2022-10-16T09:01:13;6.07;;;2.25;;
55827;SDS011;41758;51.992;5.890;2022-10-16T09:06:50;4.28;;;1.77;;
55827;SDS011;41758;51.992;5.890;2022-10-16T09:09:28;4.32;;;1.80;;
55827;SDS011;41758;51.992;5.890;2022-10-16T09:17:53;4.85;;;2.13;;
55827;SDS011;41758;51.992;5.890;2022-10-16T09:23:30;6.63;;;2.30;;
55827;SDS011;41758;51.992;5.890;2022-10-16T09:26:00;8.70;;;5.18;;
55827;SDS011;41758;51.992;5.890;2022-10-16T09:28:27;10.65;;;6.28;;
55827;SDS011;41758;51.992;5.890;2022-10-16T09:30:53;9.10;;;4.30;;
55827;SDS011;41758;51.992;5.890;2022-10-16T09:33:22;13.43;;;6.93;;
55827;SDS011;41758;51.992;5.890;2022-10-16T09:35:51;12.70;;;7.85;;
55827;SDS011;41758;51.992;5.890;2022-10-16T09:40:51;8.43;;;4.00;;
55827;SDS011;41758;51.992;5.890;2022-10-16T09:43:27;17.38;;;10.00;;
55827;SDS011;41758;51.992;5.890;2022-10-16T09:48:48;12.90;;;7.63;;
55827;SDS011;41758;51.992;5.890;2022-10-16T09:51:19;12.48;;;8.15;;
55827;SDS011;41758;51.992;5.890;2022-10-16T09:56:42;9.45;;;4.88;;
55827;SDS011;41758;51.992;5.890;2022-10-16T10:01:41;6.40;;;2.20;;
55827;SDS011;41758;51.992;5.890;2022-10-16T10:04:09;10.93;;;5.18;;
55827;SDS011;41758;51.992;5.890;2022-10-16T10:09:13;7.03;;;3.70;;
55827;SDS011;41758;51.992;5.890;2022-10-16T10:12:00;6.28;;;2.40;;
55827;SDS011;41758;51.992;5.890;2022-10-16T10:19:41;10.32;;;4.55;;
55827;SDS011;41758;51.992;5.890;2022-10-16T10:24:56;11.70;;;7.53;;
55827;SDS011;41758;51.992;5.890;2022-10-16T10:27:34;7.50;;;2.78;;
55827;SDS011;41758;51.992;5.890;2022-10-16T10:44:03;7.40;;;4.10;;
55827;SDS011;41758;51.992;5.890;2022-10-16T10:55:14;9.80;;;5.40;;
55827;SDS011;41758;51.992;5.890;2022-10-16T11:00:30;4.55;;;1.73;;
55827;SDS011;41758;51.992;5.890;2022-10-16T11:06:04;8.50;;;3.70;;
55827;SDS011;41758;51.992;5.890;2022-10-16T11:08:35;8.63;;;5.07;;
55827;SDS011;41758;51.992;5.890;2022-10-16T11:11:02;9.32;;;6.32;;
55827;SDS011;41758;51.992;5.890;2022-10-16T11:13:44;10.15;;;3.33;;
55827;SDS011;41758;51.992;5.890;2022-10-16T11:16:27;8.02;;;3.35;;
55827;SDS011;41758;51.992;5.890;2022-10-16T11:19:05;11.02;;;5.53;;
55827;SDS011;41758;51.992;5.890;2022-10-16T11:21:39;8.15;;;2.90;;
55827;SDS011;41758;51.992;5.890;2022-10-16T11:26:43;8.55;;;5.03;;
55827;SDS011;41758;51.992;5.890;2022-10-16T11:29:19;7.28;;;3.13;;
55827;SDS011;41758;51.992;5.890;2022-10-16T11:31:52;9.30;;;3.85;;
55827;SDS011;41758;51.992;5.890;2022-10-16T11:34:26;7.25;;;4.38;;
55827;SDS011;41758;51.992;5.890;2022-10-16T11:39:39;7.97;;;3.90;;
55827;SDS011;41758;51.992;5.890;2022-10-16T11:42:16;6.75;;;4.00;;
55827;SDS011;41758;51.992;5.890;2022-10-16T11:48:12;7.45;;;3.00;;
55827;SDS011;41758;51.992;5.890;2022-10-16T11:51:05;9.18;;;3.47;;
55827;SDS011;41758;51.992;5.890;2022-10-16T11:53:56;6.03;;;2.55;;
55827;SDS011;41758;51.992;5.890;2022-10-16T11:56:29;10.65;;;3.60;;
55827;SDS011;41758;51.992;5.890;2022-10-16T11:59:01;6.68;;;3.30;;
55827;SDS011;41758;51.992;5.890;2022-10-16T12:01:39;5.65;;;2.10;;
55827;SDS011;41758;51.992;5.890;2022-10-16T12:04:26;7.18;;;1.88;;
55827;SDS011;41758;51.992;5.890;2022-10-16T12:07:01;9.07;;;2.08;;
55827;SDS011;41758;51.992;5.890;2022-10-16T12:09:32;5.78;;;1.90;;
55827;SDS011;41758;51.992;5.890;2022-10-16T12:12:00;7.35;;;1.77;;
55827;SDS011;41758;51.992;5.890;2022-10-16T12:16:58;5.28;;;1.70;;
55827;SDS011;41758;51.992;5.890;2022-10-16T12:19:26;5.80;;;2.58;;
55827;SDS011;41758;51.992;5.890;2022-10-16T12:21:58;7.25;;;2.03;;
55827;SDS011;41758;51.992;5.890;2022-10-16T12:27:00;6.28;;;1.70;;
55827;SDS011;41758;51.992;5.890;2022-10-16T12:31:58;5.90;;;1.80;;
55827;SDS011;41758;51.992;5.890;2022-10-16T12:34:37;5.32;;;2.28;;
55827;SDS011;41758;51.992;5.890;2022-10-16T12:39:35;4.60;;;1.75;;
55827;SDS011;41758;51.992;5.890;2022-10-16T12:42:20;6.38;;;1.48;;
55827;SDS011;41758;51.992;5.890;2022-10-16T12:44:52;3.70;;;1.40;;
55827;SDS011;41758;51.992;5.890;2022-10-16T12:47:23;4.28;;;1.50;;
55827;SDS011;41758;51.992;5.890;2022-10-16T12:49:52;3.58;;;1.30;;
55827;SDS011;41758;51.992;5.890;2022-10-16T12:52:34;4.07;;;1.77;;
55827;SDS011;41758;51.992;5.890;2022-10-16T12:55:05;4.03;;;1.70;;
55827;SDS011;41758;51.992;5.890;2022-10-16T13:00:25;7.00;;;1.80;;
55827;SDS011;41758;51.992;5.890;2022-10-16T13:05:32;3.83;;;1.30;;
55827;SDS011;41758;51.992;5.890;2022-10-16T13:22:43;7.45;;;1.65;;
55827;SDS011;41758;51.992;5.890;2022-10-16T13:28:01;3.55;;;1.52;;
55827;SDS011;41758;51.992;5.890;2022-10-16T13:30:33;6.18;;;1.80;;
55827;SDS011;41758;51.992;5.890;2022-10-16T13:33:16;4.57;;;1.50;;
55827;SDS011;41758;51.992;5.890;2022-10-16T13:35:52;4.43;;;1.67;;
55827;SDS011;41758;51.992;5.890;2022-10-16T13:38:21;4.80;;;1.65;;
55827;SDS011;41758;51.992;5.890;2022-10-16T13:40:49;4.68;;;1.70;;
55827;SDS011;41758;51.992;5.890;2022-10-16T13:43:27;5.65;;;1.73;;
55827;SDS011;41758;51.992;5.890;2022-10-16T13:46:12;5.68;;;1.52;;
55827;SDS011;41758;51.992;5.890;2022-10-16T13:48:40;7.55;;;1.90;;
55827;SDS011;41758;51.992;5.890;2022-10-16T13:51:11;5.72;;;1.50;;
55827;SDS011;41758;51.992;5.890;2022-10-16T13:53:40;4.68;;;1.63;;
55827;SDS011;41758;51.992;5.890;2022-10-16T13:56:07;3.30;;;1.40;;
55827;SDS011;41758;51.992;5.890;2022-10-16T13:58:36;4.35;;;1.50;;
55827;SDS011;41758;51.992;5.890;2022-10-16T14:01:06;4.82;;;1.85;;
55827;SDS011;41758;51.992;5.890;2022-10-16T14:03:45;3.10;;;1.40;;
55827;SDS011;41758;51.992;5.890;2022-10-16T14:06:16;6.78;;;1.50;;
55827;SDS011;41758;51.992;5.890;2022-10-16T14:08:48;5.18;;;1.50;;
55827;SDS011;41758;51.992;5.890;2022-10-16T14:11:23;3.63;;;1.60;;
55827;SDS011;41758;51.992;5.890;2022-10-16T14:13:50;3.50;;;1.70;;
55827;SDS011;41758;51.992;5.890;2022-10-16T14:16:22;5.60;;;1.65;;
55827;SDS011;41758;51.992;5.890;2022-10-16T14:19:04;6.15;;;1.80;;
55827;SDS011;41758;51.992;5.890;2022-10-16T14:24:12;6.93;;;1.70;;
55827;SDS011;41758;51.992;5.890;2022-10-16T14:26:46;3.17;;;1.50;;
55827;SDS011;41758;51.992;5.890;2022-10-16T14:29:14;5.95;;;2.08;;
55827;SDS011;41758;51.992;5.890;2022-10-16T14:31:53;3.20;;;1.48;;
55827;SDS011;41758;51.992;5.890;2022-10-16T14:34:24;3.53;;;1.58;;
55827;SDS011;41758;51.992;5.890;2022-10-16T14:36:49;4.18;;;1.50;;
55827;SDS011;41758;51.992;5.890;2022-10-16T14:39:22;3.88;;;1.35;;
55827;SDS011;41758;51.992;5.890;2022-10-16T14:41:51;3.72;;;1.50;;
55827;SDS011;41758;51.992;5.890;2022-10-16T14:44:20;4.10;;;1.67;;
55827;SDS011;41758;51.992;5.890;2022-10-16T14:46:52;4.82;;;1.60;;
55827;SDS011;41758;51.992;5.890;2022-10-16T14:49:18;2.33;;;1.40;;
55827;SDS011;41758;51.992;5.890;2022-10-16T14:51:57;4.32;;;1.60;;
55827;SDS011;41758;51.992;5.890;2022-10-16T14:54:23;5.45;;;2.05;;
55827;SDS011;41758;51.992;5.890;2022-10-16T14:56:50;3.92;;;1.65;;
55827;SDS011;41758;51.992;5.890;2022-10-16T15:01:58;2.95;;;1.30;;
55827;SDS011;41758;51.992;5.890;2022-10-16T15:04:25;3.70;;;1.60;;
55827;SDS011;41758;51.992;5.890;2022-10-16T15:06:50;3.28;;;1.42;;
55827;SDS011;41758;51.992;5.890;2022-10-16T15:09:16;3.38;;;1.42;;
55827;SDS011;41758;51.992;5.890;2022-10-16T15:11:42;2.17;;;1.38;;
55827;SDS011;41758;51.992;5.890;2022-10-16T15:14:10;4.35;;;1.50;;
55827;SDS011;41758;51.992;5.890;2022-10-16T15:16:38;2.90;;;1.48;;
55827;SDS011;41758;51.992;5.890;2022-10-16T15:19:03;4.32;;;1.52;;
55827;SDS011;41758;51.992;5.890;2022-10-16T15:21:31;3.67;;;1.70;;
55827;SDS011;41758;51.992;5.890;2022-10-16T15:23:58;5.93;;;1.60;;
55827;SDS011;41758;51.992;5.890;2022-10-16T15:26:25;3.72;;;1.52;;
55827;SDS011;41758;51.992;5.890;2022-10-16T15:28:52;5.57;;;1.55;;
55827;SDS011;41758;51.992;5.890;2022-10-16T15:31:18;5.75;;;1.50;;
55827;SDS011;41758;51.992;5.890;2022-10-16T15:33:46;2.90;;;1.50;;
55827;SDS011;41758;51.992;5.890;2022-10-16T15:36:24;4.97;;;1.77;;
55827;SDS011;41758;51.992;5.890;2022-10-16T15:38:51;4.13;;;1.40;;
55827;SDS011;41758;51.992;5.890;2022-10-16T15:41:16;2.60;;;1.33;;
55827;SDS011;41758;51.992;5.890;2022-10-16T15:43:42;4.32;;;1.60;;
55827;SDS011;41758;51.992;5.890;2022-10-16T15:46:09;4.35;;;1.70;;
55827;SDS011;41758;51.992;5.890;2022-10-16T15:48:39;2.45;;;1.40;;
55827;SDS011;41758;51.992;5.890;2022-10-16T15:51:05;2.85;;;1.42;;
55827;SDS011;41758;51.992;5.890;2022-10-16T15:53:33;2.72;;;1.50;;
55827;SDS011;41758;51.992;5.890;2022-10-16T15:56:02;3.17;;;1.33;;
55827;SDS011;41758;51.992;5.890;2022-10-16T15:58:30;3.60;;;1.60;;
55827;SDS011;41758;51.992;5.890;2022-10-16T16:00:56;3.13;;;1.45;;
55827;SDS011;41758;51.992;5.890;2022-10-16T16:03:23;5.68;;;1.60;;
55827;SDS011;41758;51.992;5.890;2022-10-16T16:05:49;2.92;;;1.40;;
55827;SDS011;41758;51.992;5.890;2022-10-16T16:08:14;4.43;;;1.70;;
55827;SDS011;41758;51.992;5.890;2022-10-16T16:10:41;4.05;;;1.42;;
55827;SDS011;41758;51.992;5.890;2022-10-16T16:13:07;4.25;;;1.40;;
55827;SDS011;41758;51.992;5.890;2022-10-16T16:15:33;4.05;;;1.40;;
55827;SDS011;41758;51.992;5.890;2022-10-16T16:17:58;3.65;;;1.30;;
55827;SDS011;41758;51.992;5.890;2022-10-16T16:20:26;3.85;;;1.65;;
55827;SDS011;41758;51.992;5.890;2022-10-16T16:22:55;4.05;;;1.70;;
55827;SDS011;41758;51.992;5.890;2022-10-16T16:25:21;4.97;;;1.70;;
55827;SDS011;41758;51.992;5.890;2022-10-16T16:27:47;4.15;;;1.63;;
55827;SDS011;41758;51.992;5.890;2022-10-16T16:30:13;4.13;;;1.40;;
55827;SDS011;41758;51.992;5.890;2022-10-16T16:32:38;6.32;;;1.45;;
55827;SDS011;41758;51.992;5.890;2022-10-16T16:35:04;2.45;;;1.33;;
55827;SDS011;41758;51.992;5.890;2022-10-16T16:37:30;3.15;;;1.70;;
55827;SDS011;41758;51.992;5.890;2022-10-16T16:39:56;3.25;;;1.38;;
55827;SDS011;41758;51.992;5.890;2022-10-16T16:42:25;4.13;;;1.48;;
55827;SDS011;41758;51.992;5.890;2022-10-16T16:44:51;3.75;;;1.80;;
55827;SDS011;41758;51.992;5.890;2022-10-16T16:47:17;3.47;;;1.60;;
55827;SDS011;41758;51.992;5.890;2022-10-16T16:49:43;3.80;;;1.60;;
55827;SDS011;41758;51.992;5.890;2022-10-16T16:52:09;3.65;;;2.03;;
55827;SDS011;41758;51.992;5.890;2022-10-16T16:54:35;3.80;;;1.95;;
55827;SDS011;41758;51.992;5.890;2022-10-16T16:57:00;3.67;;;1.70;;
55827;SDS011;41758;51.992;5.890;2022-10-16T16:59:29;3.67;;;1.60;;
55827;SDS011;41758;51.992;5.890;2022-10-16T17:01:58;4.22;;;1.75;;
55827;SDS011;41758;51.992;5.890;2022-10-16T17:04:24;4.03;;;1.85;;
55827;SDS011;41758;51.992;5.890;2022-10-16T17:06:52;3.75;;;1.98;;